createdAt,value
2023-04-28T00:01:19.333Z,15.10
2023-04-28T00:04:22.023Z,15.00
2023-04-28T00:07:24.352Z,15.00
2023-04-28T00:10:26.334Z,15.00
2023-04-28T00:13:28.584Z,15.10
2023-04-28T00:16:31.585Z,15.10
2023-04-28T00:19:33.545Z,15.00
2023-04-28T00:22:35.481Z,14.90
2023-04-28T00:25:37.502Z,15.00
2023-04-28T00:28:39.550Z,15.10
2023-04-28T00:31:41.560Z,15.10
2023-04-28T00:34:43.983Z,15.00
2023-04-28T00:37:45.865Z,14.90
2023-04-28T00:40:47.814Z,14.90
2023-04-28T00:43:50.806Z,14.80
2023-04-28T00:46:53.898Z,14.70
2023-04-28T00:49:56.225Z,14.70
2023-04-28T00:52:58.833Z,14.60
2023-04-28T00:56:00.822Z,14.60
2023-04-28T00:59:02.831Z,14.40
2023-04-28T01:02:06.296Z,14.40
2023-04-28T01:05:09.672Z,14.40
2023-04-28T01:08:12.094Z,14.30
2023-04-28T01:11:14.430Z,14.30
2023-04-28T01:14:34.795Z,14.20
2023-04-28T01:17:37.152Z,14.00
2023-04-28T01:20:39.450Z,14.10
2023-04-28T01:23:41.739Z,14.10
2023-04-28T01:26:43.743Z,14.10
2023-04-28T01:29:45.713Z,14.10
2023-04-28T01:32:48.840Z,13.90
2023-04-28T01:35:51.338Z,14.10
2023-04-28T01:38:53.599Z,14.10
2023-04-28T01:41:55.586Z,14.20
2023-04-28T01:44:57.971Z,14.20
2023-04-28T01:47:59.985Z,14.20
2023-04-28T01:51:02.131Z,14.20
2023-04-28T01:54:04.268Z,14.20
2023-04-28T01:57:08.698Z,14.20
2023-04-28T02:00:11.821Z,14.30
2023-04-28T02:03:23.511Z,14.20
2023-04-28T02:06:25.590Z,14.20
2023-04-28T02:09:27.653Z,14.10
2023-04-28T02:12:30.964Z,14.10
2023-04-28T02:15:39.604Z,14.00
2023-04-28T02:18:41.967Z,14.00
2023-04-28T02:21:44.019Z,13.90
2023-04-28T02:24:46.007Z,14.00
2023-04-28T02:27:48.037Z,13.90
2023-04-28T02:30:53.222Z,13.90
2023-04-28T02:33:55.208Z,13.90
2023-04-28T02:36:57.361Z,14.00
2023-04-28T02:39:59.355Z,13.90
2023-04-28T02:43:01.330Z,13.90
2023-04-28T02:46:04.648Z,13.80
2023-04-28T02:49:06.663Z,13.80
2023-04-28T02:52:08.681Z,13.80
2023-04-28T02:55:11.019Z,13.80
2023-04-28T02:58:13.086Z,13.80
2023-04-28T03:01:15.190Z,13.80
2023-04-28T03:04:17.931Z,13.80
2023-04-28T03:07:20.552Z,13.90
2023-04-28T03:10:22.781Z,13.80
2023-04-28T03:13:24.907Z,13.80
2023-04-28T03:16:27.020Z,13.90
2023-04-28T03:19:29.146Z,13.90
2023-04-28T03:22:31.341Z,13.90
2023-04-28T03:25:33.644Z,13.90
2023-04-28T03:28:36.345Z,13.90
2023-04-28T03:31:38.457Z,13.90
2023-04-28T03:34:41.137Z,13.90
2023-04-28T03:37:45.876Z,13.90
2023-04-28T03:40:48.135Z,13.90
2023-04-28T03:43:52.244Z,13.90
2023-04-28T03:47:01.855Z,13.90
2023-04-28T03:50:04.002Z,13.90
2023-04-28T03:53:15.333Z,13.90
2023-04-28T03:56:17.317Z,14.00
2023-04-28T03:59:19.361Z,13.90
2023-04-28T04:02:24.602Z,13.90
2023-04-28T04:05:26.813Z,13.90
2023-04-28T04:08:28.951Z,13.90
2023-04-28T04:11:30.927Z,13.80
2023-04-28T04:14:32.977Z,13.90
2023-04-28T04:17:35.636Z,13.90
2023-04-28T04:20:37.778Z,13.90
2023-04-28T04:23:39.764Z,13.80
2023-04-28T04:26:42.086Z,13.90
2023-04-28T04:30:08.149Z,13.90
2023-04-28T04:33:11.986Z,13.90
2023-04-28T04:36:14.123Z,14.00
2023-04-28T04:39:16.321Z,13.90
2023-04-28T04:42:25.230Z,14.00
2023-04-28T04:45:42.724Z,14.10
2023-04-28T04:48:44.950Z,14.10
2023-04-28T04:51:47.011Z,14.20
2023-04-28T04:54:49.236Z,14.20
2023-04-28T04:57:51.259Z,14.20
2023-04-28T05:01:13.073Z,14.20
2023-04-28T05:04:16.409Z,14.30
2023-04-28T05:07:20.808Z,14.30
2023-04-28T05:10:24.410Z,14.40
2023-04-28T05:13:26.728Z,14.40
2023-04-28T05:16:35.074Z,14.40
2023-04-28T05:19:50.884Z,14.50
2023-04-28T05:22:53.408Z,14.50
2023-04-28T05:25:55.559Z,14.50
2023-04-28T05:28:57.575Z,14.60
2023-04-28T05:32:00.863Z,14.60
2023-04-28T05:35:03.124Z,14.60
2023-04-28T05:38:06.097Z,14.60
2023-04-28T05:41:08.175Z,14.60
2023-04-28T05:44:10.121Z,14.70
2023-04-28T05:47:12.136Z,14.70
2023-04-28T05:50:14.367Z,14.70
2023-04-28T05:53:16.453Z,14.70
2023-04-28T05:56:18.579Z,14.70
2023-04-28T05:59:20.691Z,14.70
2023-04-28T06:02:23.764Z,14.70
2023-04-28T06:05:27.497Z,14.70
2023-04-28T06:08:31.000Z,14.80
2023-04-28T06:11:33.056Z,14.80
2023-04-28T06:14:35.042Z,14.90
2023-04-28T06:17:39.514Z,14.90
2023-04-28T06:20:41.581Z,14.90
2023-04-28T06:23:44.500Z,14.90
2023-04-28T06:26:46.748Z,14.90
2023-04-28T06:29:48.662Z,14.90
2023-04-28T06:32:50.918Z,14.80
2023-04-28T06:35:53.607Z,14.80
2023-04-28T06:38:55.698Z,14.80
2023-04-28T06:41:57.697Z,14.80
2023-04-28T06:45:02.763Z,14.70
2023-04-28T06:48:11.692Z,14.80
2023-04-28T06:51:15.160Z,14.80
2023-04-28T06:54:17.443Z,14.70
2023-04-28T06:57:19.865Z,14.70
2023-04-28T07:00:22.640Z,14.70
2023-04-28T07:03:24.758Z,14.70
2023-04-28T07:06:26.753Z,14.80
2023-04-28T07:09:30.420Z,14.70
2023-04-28T07:12:33.542Z,14.70
2023-04-28T07:15:35.592Z,14.70
2023-04-28T07:18:37.973Z,14.80
2023-04-28T07:21:40.048Z,14.70
2023-04-28T07:24:42.130Z,14.80
2023-04-28T07:27:46.635Z,14.70
2023-04-28T07:30:48.681Z,14.70
2023-04-28T07:33:50.761Z,14.70
2023-04-28T07:36:52.712Z,14.80
2023-04-28T07:39:54.752Z,14.90
2023-04-28T07:42:56.752Z,14.90
2023-04-28T07:45:58.803Z,14.90
2023-04-28T07:49:01.294Z,15.00
2023-04-28T07:52:03.548Z,15.00
2023-04-28T07:55:05.857Z,15.10
2023-04-28T07:58:08.650Z,15.10
2023-04-28T08:01:10.693Z,15.10
2023-04-28T08:04:12.832Z,15.20
2023-04-28T08:07:15.547Z,15.20
2023-04-28T08:10:17.673Z,15.20
2023-04-28T08:13:19.719Z,15.20
2023-04-28T08:16:21.884Z,15.20
2023-04-28T08:19:24.136Z,15.20
2023-04-28T08:22:26.191Z,15.30
2023-04-28T08:25:28.297Z,15.40
2023-04-28T08:28:30.238Z,15.30
2023-04-28T08:31:35.927Z,15.40
2023-04-28T08:34:38.005Z,15.40
2023-04-28T08:37:40.114Z,15.40
2023-04-28T08:40:42.160Z,15.50
2023-04-28T08:43:44.195Z,15.40
2023-04-28T08:46:48.604Z,15.50
2023-04-28T08:49:51.713Z,15.50
2023-04-28T08:52:54.915Z,15.60
2023-04-28T08:55:58.303Z,15.60
2023-04-28T08:59:05.224Z,15.70
2023-04-28T09:02:10.810Z,15.90
2023-04-28T09:05:14.333Z,15.90
2023-04-28T09:08:16.556Z,16.00
2023-04-28T09:11:18.608Z,16.10
2023-04-28T09:14:20.783Z,16.30
2023-04-28T09:17:22.744Z,16.40
2023-04-28T09:20:26.717Z,16.40
2023-04-28T09:23:29.217Z,16.50
2023-04-28T09:26:49.568Z,16.50
2023-04-28T09:29:57.618Z,16.50
2023-04-28T09:33:06.528Z,16.50
2023-04-28T09:36:09.387Z,16.50
2023-04-28T09:39:11.389Z,16.50
2023-04-28T09:42:39.103Z,16.60
2023-04-28T09:45:41.257Z,16.60
2023-04-28T09:48:43.334Z,16.70
2023-04-28T09:51:45.446Z,16.80
2023-04-28T09:54:50.216Z,17.10
2023-04-28T09:57:54.763Z,17.10
2023-04-28T10:00:58.538Z,17.40
2023-04-28T10:04:02.009Z,17.50
2023-04-28T10:07:04.081Z,17.80
2023-04-28T10:10:07.935Z,17.90
2023-04-28T10:13:10.742Z,18.00
2023-04-28T10:16:14.656Z,18.10
2023-04-28T10:19:16.865Z,18.00
2023-04-28T10:22:43.859Z,18.00
2023-04-28T10:25:53.166Z,17.90
2023-04-28T10:28:55.687Z,17.90
2023-04-28T10:32:19.637Z,17.70
2023-04-28T10:35:28.093Z,17.60
2023-04-28T10:38:31.745Z,17.50
2023-04-28T10:41:33.925Z,17.50
2023-04-28T10:44:35.763Z,17.80
2023-04-28T10:48:03.016Z,17.90
2023-04-28T11:03:43.030Z,17.70
2023-04-28T11:06:46.374Z,17.40
2023-04-28T11:09:48.548Z,17.40
2023-04-28T11:13:26.175Z,17.40
2023-04-28T11:16:28.464Z,17.40
2023-04-28T11:19:31.831Z,17.40
2023-04-28T11:22:33.960Z,17.40
2023-04-28T11:25:54.641Z,17.50
2023-04-28T11:28:57.896Z,17.70
2023-04-28T11:32:00.476Z,17.70
2023-04-28T11:35:02.798Z,17.70
2023-04-28T11:38:04.784Z,17.80
2023-04-28T11:41:06.749Z,17.80
2023-04-28T11:44:23.599Z,17.90
2023-04-28T11:47:33.204Z,17.90
2023-04-28T11:50:38.750Z,17.90
2023-04-28T11:53:44.713Z,17.90
2023-04-28T11:56:50.358Z,18.00
2023-04-28T11:59:52.697Z,18.20
2023-04-28T12:02:54.970Z,18.60
2023-04-28T12:05:57.191Z,18.90
2023-04-28T12:08:59.236Z,18.90
2023-04-28T12:12:05.770Z,18.90
2023-04-28T12:15:08.360Z,18.80
2023-04-28T12:18:11.209Z,18.90
2023-04-28T12:21:21.718Z,18.80
2023-04-28T12:24:23.634Z,19.00
2023-04-28T12:27:26.191Z,19.10
2023-04-28T12:30:29.498Z,19.00
2023-04-28T12:33:31.847Z,18.90
2023-04-28T12:36:33.811Z,18.70
2023-04-28T12:39:39.467Z,18.60
2023-04-28T12:42:41.755Z,18.40
2023-04-28T12:45:43.868Z,18.40
2023-04-28T12:48:45.756Z,18.40
2023-04-28T12:51:48.536Z,18.40
2023-04-28T12:54:50.532Z,18.50
2023-04-28T12:57:52.669Z,18.50
2023-04-28T13:00:54.686Z,18.40
2023-04-28T13:03:56.923Z,18.40
2023-04-28T13:06:59.101Z,18.40
2023-04-28T13:10:00.973Z,18.40
2023-04-28T13:13:02.932Z,18.50
2023-04-28T13:16:05.341Z,18.50
2023-04-28T13:19:07.683Z,18.40
2023-04-28T13:22:09.674Z,18.40
2023-04-28T13:25:11.763Z,18.30
2023-04-28T13:28:13.788Z,18.20
2023-04-28T13:31:15.815Z,18.10
2023-04-28T13:34:17.814Z,18.20
2023-04-28T13:37:19.874Z,18.10
2023-04-28T13:40:22.459Z,18.30
2023-04-28T13:43:24.555Z,18.30
2023-04-28T13:46:27.886Z,18.40
2023-04-28T13:49:29.974Z,18.70
2023-04-28T13:52:32.333Z,18.90
2023-04-28T13:58:41.491Z,19.00
2023-04-28T14:01:43.617Z,19.30
2023-04-28T14:04:47.469Z,19.20
2023-04-28T14:07:49.839Z,19.30
2023-04-28T14:10:51.823Z,19.20
2023-04-28T14:13:53.864Z,19.40
2023-04-28T14:16:55.797Z,19.60
2023-04-28T14:19:57.825Z,19.50
2023-04-28T14:22:59.973Z,19.80
2023-04-28T14:26:02.100Z,20.00
2023-04-28T14:29:06.164Z,19.90
2023-04-28T14:32:10.992Z,19.90
2023-04-28T14:35:14.004Z,19.90
2023-04-28T14:38:16.001Z,19.80
2023-04-28T14:41:17.916Z,19.70
2023-04-28T14:44:19.886Z,19.60
2023-04-28T14:47:22.368Z,19.50
2023-04-28T14:50:24.470Z,19.50
2023-04-28T14:53:28.015Z,19.70
2023-04-28T14:56:31.101Z,19.80
2023-04-28T14:59:34.113Z,19.90
2023-04-28T15:02:36.193Z,19.90
2023-04-28T15:05:38.327Z,19.90
2023-04-28T15:08:40.174Z,19.70
2023-04-28T15:11:42.220Z,19.70
2023-04-28T15:14:44.234Z,19.70
2023-04-28T15:17:46.570Z,19.70
2023-04-28T15:20:48.598Z,19.80
2023-04-28T15:23:50.474Z,19.60
2023-04-28T15:26:52.391Z,19.70
2023-04-28T15:29:56.954Z,19.70
2023-04-28T15:32:59.236Z,19.60
2023-04-28T15:36:01.339Z,19.50
2023-04-28T15:39:03.269Z,19.40
2023-04-28T15:42:05.897Z,19.10
2023-04-28T15:45:08.934Z,19.00
2023-04-28T15:48:10.891Z,19.00
2023-04-28T15:51:12.846Z,18.90
2023-04-28T15:54:14.906Z,18.80
2023-04-28T15:57:16.752Z,18.80
2023-04-28T16:00:18.766Z,18.90
2023-04-28T16:03:20.689Z,18.90
2023-04-28T16:06:22.840Z,19.10
2023-04-28T16:09:24.867Z,19.40
2023-04-28T16:12:26.848Z,19.50
2023-04-28T16:15:28.749Z,19.50
2023-04-28T16:18:30.799Z,19.50
2023-04-28T16:21:32.665Z,19.40
2023-04-28T16:24:34.622Z,19.50
2023-04-28T16:27:37.334Z,19.60
2023-04-28T16:30:39.251Z,19.50
2023-04-28T16:33:41.369Z,19.40
2023-04-28T16:36:43.297Z,19.40
2023-04-28T16:39:45.265Z,19.30
2023-04-28T16:42:47.275Z,19.20
2023-04-28T16:45:49.300Z,19.30
2023-04-28T16:48:51.308Z,19.30
2023-04-28T16:52:03.256Z,19.30
2023-04-28T16:55:06.353Z,19.20
2023-04-28T16:58:08.297Z,19.10
2023-04-28T17:01:10.607Z,19.00
2023-04-28T17:04:13.816Z,19.10
2023-04-28T17:07:15.917Z,19.20
2023-04-28T17:10:18.015Z,19.20
2023-04-28T17:13:20.132Z,19.20
2023-04-28T17:16:22.395Z,19.10
2023-04-28T17:19:24.883Z,19.20
2023-04-28T17:22:26.971Z,19.20
2023-04-28T17:25:29.048Z,19.20
2023-04-28T17:28:31.503Z,19.10
2023-04-28T17:31:33.524Z,19.10
2023-04-28T17:34:35.483Z,19.00
2023-04-28T17:37:37.516Z,19.00
2023-04-28T17:40:39.566Z,18.90
2023-04-28T17:43:41.468Z,18.90
2023-04-28T17:46:43.480Z,18.90
2023-04-28T17:49:45.450Z,18.90
2023-04-28T17:52:47.427Z,18.90
2023-04-28T17:55:49.376Z,18.80
2023-04-28T17:58:51.341Z,18.70
2023-04-28T18:01:53.319Z,18.70
2023-04-28T18:04:55.500Z,18.70
2023-04-28T18:08:00.381Z,18.60
2023-04-28T18:11:02.388Z,18.60
2023-04-28T18:14:04.356Z,18.50
2023-04-28T18:17:06.432Z,18.50
2023-04-28T18:20:08.729Z,18.40
2023-04-28T18:23:10.702Z,18.40
2023-04-28T18:26:12.701Z,18.40
2023-04-28T18:29:17.310Z,18.40
2023-04-28T18:32:19.297Z,18.30
2023-04-28T18:35:21.252Z,18.30
2023-04-28T18:38:23.252Z,18.20
2023-04-28T18:41:25.278Z,18.20
2023-04-28T18:44:27.313Z,18.20
2023-04-28T18:47:29.265Z,18.20
2023-04-28T18:50:32.786Z,18.20
2023-04-28T18:53:36.219Z,18.10
2023-04-28T18:56:38.203Z,18.10
2023-04-28T18:59:40.163Z,18.00
2023-04-28T19:02:42.695Z,18.00
2023-04-28T19:05:48.178Z,18.00
2023-04-28T19:08:50.443Z,18.00
2023-04-28T19:11:52.310Z,18.00
2023-04-28T19:14:54.625Z,17.90
2023-04-28T19:17:56.809Z,18.00
2023-04-28T19:21:05.400Z,17.90
2023-04-28T19:24:07.355Z,17.90
2023-04-28T19:27:09.321Z,18.00
2023-04-28T19:30:15.198Z,18.00
2023-04-28T19:33:17.283Z,17.90
2023-04-28T19:36:19.253Z,18.00
2023-04-28T19:39:21.813Z,17.90
2023-04-28T19:42:24.049Z,18.00
2023-04-28T19:45:26.638Z,18.00
2023-04-28T19:48:28.675Z,17.90
2023-04-28T19:51:30.635Z,18.00
2023-04-28T19:54:32.578Z,18.00
2023-04-28T19:57:34.590Z,18.00
2023-04-28T20:00:36.824Z,18.00
2023-04-28T20:03:38.991Z,18.00
2023-04-28T20:06:41.156Z,18.00
2023-04-28T20:09:43.268Z,18.00
2023-04-28T20:12:45.522Z,18.00
2023-04-28T20:15:47.607Z,18.00
2023-04-28T20:18:49.555Z,18.00
2023-04-28T20:21:52.012Z,17.90
2023-04-28T20:24:55.218Z,18.00
2023-04-28T20:27:57.234Z,17.90
2023-04-28T20:31:01.536Z,17.90
2023-04-28T20:34:04.357Z,17.80
2023-04-28T20:37:06.495Z,17.80
2023-04-28T20:40:09.216Z,17.80
2023-04-28T20:43:11.215Z,17.70
2023-04-28T20:46:13.440Z,17.70
2023-04-28T20:49:15.462Z,17.70
2023-04-28T20:52:17.413Z,17.70
2023-04-28T20:55:19.445Z,17.70
2023-04-28T20:58:21.919Z,17.60
2023-04-28T21:01:24.198Z,17.70
2023-04-28T21:04:26.269Z,17.70
2023-04-28T21:07:28.294Z,17.70
2023-04-28T21:10:31.602Z,17.60
2023-04-28T21:16:40.881Z,17.50
2023-04-28T21:19:42.922Z,17.40
2023-04-28T21:22:45.251Z,17.40
2023-04-28T21:25:47.257Z,17.40
2023-04-28T21:28:49.299Z,17.40
2023-04-28T21:31:51.297Z,17.40
2023-04-28T21:34:53.661Z,17.40
2023-04-28T21:37:55.631Z,17.30
2023-04-28T21:40:57.572Z,17.30
2023-04-28T21:43:59.515Z,17.20
2023-04-28T21:47:02.282Z,17.30
2023-04-28T21:50:05.150Z,17.20
2023-04-28T21:53:07.173Z,17.20
2023-04-28T21:56:11.832Z,17.20
2023-04-28T21:59:13.990Z,17.20
2023-04-28T22:02:16.602Z,17.20
2023-04-28T22:05:18.982Z,17.00
2023-04-28T22:08:21.013Z,17.00
2023-04-28T22:11:23.604Z,17.00
2023-04-28T22:14:39.681Z,17.00
2023-04-28T22:17:43.587Z,17.00
2023-04-28T22:20:45.700Z,17.00
2023-04-28T22:23:48.332Z,16.90
2023-04-28T22:27:02.935Z,16.90
2023-04-28T22:30:05.465Z,16.90
2023-04-28T22:33:07.406Z,16.90
2023-04-28T22:36:09.465Z,16.90
2023-04-28T22:39:12.040Z,16.80
2023-04-28T22:42:14.099Z,16.80
2023-04-28T22:45:16.020Z,16.70
2023-04-28T22:48:18.029Z,16.70
2023-04-28T22:51:20.351Z,16.60
2023-04-28T22:54:22.243Z,16.70
2023-04-28T22:57:24.327Z,16.50
2023-04-28T23:00:26.305Z,16.40
2023-04-28T23:03:28.568Z,16.40
2023-04-28T23:06:30.577Z,16.40
2023-04-28T23:09:33.563Z,16.30
2023-04-28T23:12:35.753Z,16.30
2023-04-28T23:15:37.716Z,16.20
2023-04-28T23:18:39.703Z,16.20
2023-04-28T23:21:41.720Z,16.10
2023-04-28T23:24:44.098Z,16.10
2023-04-28T23:27:46.064Z,16.00
2023-04-28T23:30:48.017Z,15.90
2023-04-28T23:33:50.303Z,15.90
2023-04-28T23:36:52.209Z,15.80
2023-04-28T23:39:54.538Z,15.70
2023-04-28T23:42:56.501Z,15.40
2023-04-28T23:45:58.593Z,15.60
2023-04-28T23:49:00.689Z,15.70
2023-04-28T23:52:02.613Z,15.70
2023-04-28T23:55:04.795Z,15.80
2023-04-28T23:58:07.876Z,15.80
